Portada
METAR-TAF:

METAR-TAF

Aeropuertos :

Air Force Base Waterkloof

Waterkloof, Sudáfrica

latitud: 25-50S, longitud: 028-13E, altitud: 1498 m

METAR: falta

Hora: 09:16 (07:16 UTC)

Pronóstico

El informe se hizo hace 22 horas y 16 minutos, a las 09:00 UTC
Pronóstico válido del 15 a las 10 UTC al 15 a las 18 UTC
Viento 3 kt con dirección variable
Visibilidad 10 km o más
sin nubes por debajo de 1500 m y sin presencia de cumulonimbus.
Probabilidad 40% :
Temporalmente
del 15 a las 10 UTC al 15 a las 16 UTC
Escasas nubes a una altura de 3000 ft, Cumulonimbus.
tormenta, lluvia ligera,

TAF: FAWK 150900Z 1510/1518 VRB03KT CAVOK TX21/1512Z TN17/1518Z PROB40 TEMPO 1510/1516 -TSRA FEW030CB

Observaciones y pronósticos meteorológicos de más de 4000 aeropuertos (mensajes METAR y TAF).

Los puntos amarillos y rojos representan las estaciones disponibles.

Ponga el ratón en el punto deseado para ver el nombre de la estación.

Haga clic para ver las observaciones y los pronósticos meteorológicos.

Para cambiar el mapa : haga clic en los botones verdes con una cruz de color negro para hacer un zoom, en el botón verde con un guión para alejar o en las flechas verdes para mapas adyacentes.


METAR-TAF: